Time;durP1;ratioP1;P1;durP2;ratioP2;P2;SDS_P1;SDS_P2;PMS_P1;PMS_P2;Temp;Humidity;BMP_temperature;BMP_pressure;BME280_temperature;BME280_humidity;BME280_pressure;Samples;Min_cycle;Max_cycle;Signal;HPM_P1;HPM_P2
2022/12/28 00:00:07;;;;;;;11.18;3.83;;;;;;;;;;5105472;28;20027;-77
2022/12/28 00:02:33;;;;;;;10.75;3.90;;;;;;;;;;5085369;28;20024;-77
2022/12/28 00:04:59;;;;;;;9.43;3.92;;;;;;;;;;5102458;28;20043;-78
2022/12/28 00:07:25;;;;;;;9.85;3.30;;;;;;;;;;5075021;28;20035;-77
2022/12/28 00:09:51;;;;;;;9.73;3.70;;;;;;;;;;5103806;28;20027;-77
2022/12/28 00:12:17;;;;;;;9.30;3.97;;;;;;;;;;5104046;28;20032;-77
2022/12/28 00:14:43;;;;;;;15.82;4.32;;;;;;;;;;5103950;28;20019;-77
2022/12/28 00:17:09;;;;;;;14.43;3.90;;;;;;;;;;5100920;28;20043;-77
2022/12/28 00:19:36;;;;;;;15.32;5.70;;;;;;;;;;5081272;28;20047;-76
2022/12/28 00:22:02;;;;;;;17.02;6.30;;;;;;;;;;5101994;28;20027;-77
2022/12/28 00:24:28;;;;;;;8.88;4.40;;;;;;;;;;5104272;28;20058;-76
2022/12/28 00:26:55;;;;;;;15.07;6.10;;;;;;;;;;5105527;28;20077;-76
2022/12/28 00:29:21;;;;;;;16.85;5.18;;;;;;;;;;5098593;28;20036;-77
2022/12/28 00:31:47;;;;;;;15.02;4.47;;;;;;;;;;5103341;28;20044;-77
2022/12/28 00:34:13;;;;;;;8.40;4.35;;;;;;;;;;5086557;28;20024;-77
2022/12/28 00:36:39;;;;;;;14.68;5.53;;;;;;;;;;5104142;28;20034;-76
2022/12/28 00:39:05;;;;;;;11.23;4.30;;;;;;;;;;5104319;28;20039;-77
2022/12/28 00:41:31;;;;;;;10.60;4.38;;;;;;;;;;5095720;28;20031;-77
2022/12/28 00:43:58;;;;;;;18.15;5.28;;;;;;;;;;5072572;28;20039;-77
2022/12/28 00:46:24;;;;;;;12.93;5.47;;;;;;;;;;5104455;28;20050;-77
2022/12/28 00:48:50;;;;;;;11.65;5.63;;;;;;;;;;5082037;28;20031;-76
2022/12/28 00:51:17;;;;;;;16.52;5.50;;;;;;;;;;5106320;27;20085;-78
2022/12/28 00:53:43;;;;;;;10.38;4.68;;;;;;;;;;5100122;28;20016;-76
2022/12/28 00:56:11;;;;;;;12.20;5.13;;;;;;;;;;5103387;28;20027;-78
2022/12/28 00:58:38;;;;;;;12.32;5.30;;;;;;;;;;5081613;28;20032;-77
2022/12/28 01:01:04;;;;;;;9.32;4.90;;;;;;;;;;5100661;28;20426;-77
2022/12/28 01:03:30;;;;;;;13.90;4.80;;;;;;;;;;5101174;28;20024;-77
2022/12/28 01:05:56;;;;;;;9.48;4.70;;;;;;;;;;5104136;28;20058;-77
2022/12/28 01:08:23;;;;;;;17.48;5.93;;;;;;;;;;5102365;28;20486;-76
2022/12/28 01:10:49;;;;;;;9.88;4.40;;;;;;;;;;5105525;28;20030;-77
2022/12/28 01:13:15;;;;;;;10.57;4.80;;;;;;;;;;5099673;28;20405;-77
2022/12/28 01:15:41;;;;;;;9.02;4.60;;;;;;;;;;5099933;28;20486;-76
2022/12/28 01:18:07;;;;;;;10.07;5.15;;;;;;;;;;5105251;28;20024;-76
2022/12/28 01:20:33;;;;;;;12.57;4.75;;;;;;;;;;5081416;28;20051;-76
2022/12/28 01:22:59;;;;;;;9.00;5.07;;;;;;;;;;5105030;28;20043;-77
2022/12/28 01:25:25;;;;;;;13.32;5.20;;;;;;;;;;5101265;28;20024;-78
2022/12/28 01:27:51;;;;;;;10.95;5.00;;;;;;;;;;5105876;28;20034;-76
2022/12/28 01:30:17;;;;;;;11.10;4.65;;;;;;;;;;5102529;28;20042;-76
2022/12/28 01:32:43;;;;;;;14.30;5.78;;;;;;;;;;5100692;28;20093;-75
2022/12/28 01:35:09;;;;;;;9.77;4.93;;;;;;;;;;5105431;28;20460;-75
2022/12/28 01:37:35;;;;;;;11.15;5.38;;;;;;;;;;5101318;28;20483;-76
2022/12/28 01:40:01;;;;;;;15.82;6.15;;;;;;;;;;5102673;28;20062;-76
2022/12/28 01:42:27;;;;;;;12.40;6.15;;;;;;;;;;5106963;28;20146;-75
2022/12/28 01:44:53;;;;;;;14.32;7.18;;;;;;;;;;5100532;28;20036;-75
2022/12/28 01:47:34;;;;;;;13.45;6.85;;;;;;;;;;5099561;28;20032;-75
2022/12/28 01:50:03;;;;;;;15.05;5.95;;;;;;;;;;5102454;28;20043;-75
2022/12/28 01:52:32;;;;;;;11.35;6.03;;;;;;;;;;5102130;28;20028;-76
2022/12/28 01:55:01;;;;;;;20.27;5.68;;;;;;;;;;5096799;28;20058;-75
2022/12/28 01:57:30;;;;;;;11.82;5.85;;;;;;;;;;5102337;28;20464;-76
2022/12/28 01:59:59;;;;;;;14.07;7.18;;;;;;;;;;5107275;28;20502;-75
2022/12/28 02:02:25;;;;;;;20.83;6.38;;;;;;;;;;5109523;28;20024;-75
2022/12/28 02:04:51;;;;;;;11.65;6.40;;;;;;;;;;5110174;28;20525;-76
2022/12/28 02:07:31;;;;;;;16.65;7.28;;;;;;;;;;5106901;28;20126;-75
2022/12/28 02:09:57;;;;;;;36.97;8.50;;;;;;;;;;5105390;28;20038;-76
2022/12/28 02:12:24;;;;;;;14.95;7.32;;;;;;;;;;5105772;28;20023;-76
2022/12/28 02:14:51;;;;;;;14.23;6.00;;;;;;;;;;5106896;28;20023;-76
2022/12/28 02:17:17;;;;;;;13.32;6.60;;;;;;;;;;5103841;28;20024;-75
2022/12/28 02:19:45;;;;;;;15.10;7.03;;;;;;;;;;5108466;28;20063;-76
2022/12/28 02:22:29;;;;;;;18.15;6.72;;;;;;;;;;5083884;28;20023;-76
2022/12/28 02:25:07;;;;;;;11.48;6.30;;;;;;;;;;5104136;28;20026;-76
2022/12/28 02:27:46;;;;;;;12.18;6.22;;;;;;;;;;5102127;28;20046;-76
2022/12/28 02:30:13;;;;;;;12.70;6.72;;;;;;;;;;5081218;28;20424;-77
2022/12/28 02:32:38;;;;;;;11.93;7.70;;;;;;;;;;5105238;28;20422;-77
2022/12/28 02:35:08;;;;;;;11.77;6.25;;;;;;;;;;5108234;28;20020;-77
2022/12/28 02:38:13;;;;;;;15.65;6.63;;;;;;;;;;5086472;28;20085;-77
2022/12/28 02:40:42;;;;;;;12.02;7.03;;;;;;;;;;5019906;28;20049;-77
2022/12/28 02:43:08;;;;;;;16.70;7.88;;;;;;;;;;5026617;28;20030;-77
2022/12/28 02:51:07;;;;;;;12.23;7.70;;;;;;;;;;5104234;28;20043;-75
2022/12/28 02:53:33;;;;;;;20.55;8.60;;;;;;;;;;5109543;28;20410;-75
2022/12/28 02:56:23;;;;;;;15.20;8.60;;;;;;;;;;5098050;28;20024;-75
2022/12/28 02:59:07;;;;;;;16.77;9.50;;;;;;;;;;5104219;28;20067;-75
2022/12/28 03:01:52;;;;;;;17.80;8.90;;;;;;;;;;5104190;28;20031;-75
2022/12/28 03:04:22;;;;;;;14.88;8.68;;;;;;;;;;5102413;28;20023;-75
2022/12/28 03:09:51;;;;;;;11.85;9.20;;;;;;;;;;5102234;28;20045;-76
2022/12/28 03:12:27;;;;;;;16.17;8.68;;;;;;;;;;5102231;28;20459;-76
2022/12/28 03:14:57;;;;;;;13.80;9.75;;;;;;;;;;5105385;28;20468;-77
2022/12/28 03:31:28;;;;;;;14.20;9.98;;;;;;;;;;5102259;28;20121;-75
2022/12/28 03:34:13;;;;;;;13.57;9.90;;;;;;;;;;5104614;28;20042;-75
2022/12/28 03:36:42;;;;;;;12.77;10.00;;;;;;;;;;5102926;28;20098;-75
2022/12/28 03:39:11;;;;;;;13.68;10.30;;;;;;;;;;5097840;28;20043;-76
2022/12/28 03:41:38;;;;;;;12.95;9.95;;;;;;;;;;5101398;28;20159;-76
2022/12/28 03:44:26;;;;;;;13.45;10.30;;;;;;;;;;5105660;28;20031;-76
2022/12/28 03:46:55;;;;;;;16.77;10.15;;;;;;;;;;5102775;27;20030;-75
2022/12/28 03:49:22;;;;;;;14.25;10.48;;;;;;;;;;5101609;28;20023;-76
2022/12/28 03:51:49;;;;;;;17.25;11.38;;;;;;;;;;5105286;28;20019;-76
2022/12/28 03:54:16;;;;;;;15.30;10.88;;;;;;;;;;5105303;28;20032;-77
2022/12/28 03:56:46;;;;;;;16.20;10.82;;;;;;;;;;5104841;28;20429;-77
2022/12/28 03:59:12;;;;;;;13.70;11.15;;;;;;;;;;5101148;28;20032;-77
2022/12/28 04:01:38;;;;;;;17.00;11.13;;;;;;;;;;5102432;28;20485;-76
2022/12/28 04:04:04;;;;;;;15.98;10.63;;;;;;;;;;5100358;28;20443;-78
2022/12/28 04:06:30;;;;;;;18.05;11.00;;;;;;;;;;5077362;28;20036;-77
2022/12/28 04:08:56;;;;;;;20.90;11.40;;;;;;;;;;5101220;28;20378;-77
2022/12/28 04:11:22;;;;;;;22.23;11.35;;;;;;;;;;5103736;27;20483;-79
2022/12/28 04:13:48;;;;;;;16.90;11.32;;;;;;;;;;5102964;28;20139;-78
2022/12/28 04:16:14;;;;;;;17.05;11.35;;;;;;;;;;5103162;28;20118;-78
2022/12/28 04:18:40;;;;;;;16.80;11.95;;;;;;;;;;5074490;28;20420;-79
2022/12/28 04:21:07;;;;;;;77.47;50.33;;;;;;;;;;5097648;28;20048;-77
2022/12/28 04:23:33;;;;;;;20.35;11.77;;;;;;;;;;5102373;28;20133;-78
2022/12/28 04:26:04;;;;;;;17.48;12.88;;;;;;;;;;5081036;28;20027;-78
2022/12/28 04:28:31;;;;;;;17.65;12.23;;;;;;;;;;5100825;28;20032;-78
2022/12/28 04:30:57;;;;;;;17.52;13.10;;;;;;;;;;5100436;27;20035;-78
2022/12/28 04:33:24;;;;;;;19.42;13.93;;;;;;;;;;5103079;28;20035;-79
2022/12/28 04:35:50;;;;;;;20.48;13.80;;;;;;;;;;5101082;28;20044;-77
2022/12/28 04:38:16;;;;;;;20.90;14.15;;;;;;;;;;5101742;28;20170;-77
2022/12/28 04:40:43;;;;;;;21.88;14.65;;;;;;;;;;5100028;28;20555;-78
2022/12/28 04:43:09;;;;;;;20.63;14.13;;;;;;;;;;5105624;28;20058;-78
2022/12/28 04:45:35;;;;;;;19.90;14.27;;;;;;;;;;5103710;27;20024;-76
2022/12/28 04:48:01;;;;;;;20.73;14.88;;;;;;;;;;5072696;28;20034;-76
2022/12/28 04:50:28;;;;;;;20.45;14.48;;;;;;;;;;5094500;28;20035;-79
2022/12/28 04:52:54;;;;;;;23.13;15.65;;;;;;;;;;5079245;28;20085;-76
2022/12/28 04:55:20;;;;;;;19.70;15.20;;;;;;;;;;5100882;28;20035;-77
2022/12/28 04:57:47;;;;;;;23.40;15.25;;;;;;;;;;5096974;28;20031;-76
2022/12/28 05:00:13;;;;;;;19.23;13.27;;;;;;;;;;5104147;28;20047;-77
2022/12/28 05:02:40;;;;;;;21.65;15.38;;;;;;;;;;5104279;28;20027;-77
2022/12/28 05:05:06;;;;;;;19.42;14.07;;;;;;;;;;5104435;28;20523;-78
2022/12/28 05:07:32;;;;;;;19.23;14.27;;;;;;;;;;5097191;28;20032;-79
2022/12/28 05:09:58;;;;;;;22.45;15.00;;;;;;;;;;5073207;28;20051;-80
2022/12/28 05:12:26;;;;;;;18.02;14.93;;;;;;;;;;5101731;28;20036;-78
2022/12/28 05:14:52;;;;;;;19.67;13.90;;;;;;;;;;5081768;28;20039;-77
2022/12/28 05:17:18;;;;;;;21.02;13.95;;;;;;;;;;5103355;28;20036;-77
2022/12/28 05:19:44;;;;;;;24.40;14.43;;;;;;;;;;5103047;28;20064;-77
2022/12/28 05:22:11;;;;;;;21.23;13.50;;;;;;;;;;5101827;28;20028;-77
2022/12/28 05:24:40;;;;;;;18.30;13.85;;;;;;;;;;5094506;28;20472;-77
2022/12/28 05:27:06;;;;;;;20.45;13.38;;;;;;;;;;5075447;28;20035;-76
2022/12/28 05:29:32;;;;;;;15.02;12.38;;;;;;;;;;5093780;28;20418;-76
2022/12/28 05:31:58;;;;;;;18.65;12.90;;;;;;;;;;5100303;28;20492;-76
2022/12/28 05:34:24;;;;;;;17.05;12.50;;;;;;;;;;5102204;28;20510;-76
2022/12/28 05:36:51;;;;;;;16.75;12.70;;;;;;;;;;5100216;28;20507;-77
2022/12/28 05:39:17;;;;;;;17.00;13.02;;;;;;;;;;5084772;28;20483;-76
2022/12/28 05:41:43;;;;;;;18.65;12.50;;;;;;;;;;5100048;28;20039;-77
2022/12/28 05:44:09;;;;;;;15.18;11.45;;;;;;;;;;5100710;28;20035;-78
2022/12/28 05:46:35;;;;;;;18.98;11.75;;;;;;;;;;5088537;28;20038;-77
2022/12/28 05:49:01;;;;;;;18.27;11.60;;;;;;;;;;5111181;28;20073;-78
2022/12/28 05:51:29;;;;;;;12.85;11.45;;;;;;;;;;5106037;28;20028;-77
2022/12/28 05:53:55;;;;;;;11.98;10.07;;;;;;;;;;5096595;28;20379;-76
2022/12/28 05:56:22;;;;;;;12.52;9.65;;;;;;;;;;5088278;28;20020;-77
2022/12/28 05:58:53;;;;;;;13.23;9.93;;;;;;;;;;5110681;28;20064;-77
2022/12/28 06:01:20;;;;;;;15.55;10.77;;;;;;;;;;5102400;28;20077;-78
2022/12/28 06:03:48;;;;;;;13.48;10.45;;;;;;;;;;5109633;28;20024;-77
2022/12/28 06:06:15;;;;;;;14.55;10.88;;;;;;;;;;5094892;28;20459;-76
2022/12/28 06:08:42;;;;;;;18.35;11.38;;;;;;;;;;5098785;28;20031;-78
2022/12/28 06:11:09;;;;;;;12.77;10.68;;;;;;;;;;5097659;28;20032;-77
2022/12/28 06:13:36;;;;;;;11.75;9.75;;;;;;;;;;5101342;28;20024;-77
2022/12/28 06:16:05;;;;;;;13.60;10.90;;;;;;;;;;5100810;28;20114;-77
2022/12/28 06:18:32;;;;;;;15.93;9.48;;;;;;;;;;5099404;28;20028;-77
2022/12/28 06:21:02;;;;;;;15.65;9.98;;;;;;;;;;5104196;28;20044;-78
2022/12/28 06:23:28;;;;;;;12.32;10.70;;;;;;;;;;5103101;28;20067;-77
2022/12/28 06:25:57;;;;;;;14.50;11.02;;;;;;;;;;5100762;28;20032;-76
2022/12/28 06:28:23;;;;;;;13.18;10.50;;;;;;;;;;5103760;28;20110;-78
2022/12/28 06:30:49;;;;;;;14.20;11.20;;;;;;;;;;5101316;28;20596;-78
2022/12/28 06:33:15;;;;;;;15.05;10.73;;;;;;;;;;5100819;28;20036;-77
2022/12/28 06:35:41;;;;;;;16.85;11.23;;;;;;;;;;5100533;28;20067;-77
2022/12/28 06:38:07;;;;;;;14.10;11.32;;;;;;;;;;5101076;28;20058;-77
2022/12/28 06:40:33;;;;;;;14.43;11.20;;;;;;;;;;5100837;28;20064;-78
2022/12/28 06:42:59;;;;;;;13.98;11.32;;;;;;;;;;5102433;28;20345;-79
2022/12/28 06:45:25;;;;;;;19.42;12.10;;;;;;;;;;5104602;28;20026;-77
2022/12/28 06:47:52;;;;;;;13.40;11.30;;;;;;;;;;5102461;28;20023;-75
2022/12/28 06:50:18;;;;;;;15.02;11.75;;;;;;;;;;5106388;28;20028;-75
2022/12/28 06:52:44;;;;;;;15.40;12.13;;;;;;;;;;5112380;28;20039;-76
2022/12/28 06:55:10;;;;;;;19.20;12.45;;;;;;;;;;5109943;27;20027;-76
2022/12/28 06:57:36;;;;;;;13.13;11.48;;;;;;;;;;5106235;28;20429;-77
2022/12/28 07:00:02;;;;;;;17.92;12.07;;;;;;;;;;5104593;28;20040;-77
2022/12/28 07:02:28;;;;;;;18.45;12.20;;;;;;;;;;5103172;28;20467;-77
2022/12/28 07:04:54;;;;;;;16.08;12.35;;;;;;;;;;5106422;28;20127;-78
2022/12/28 07:07:20;;;;;;;17.63;11.10;;;;;;;;;;5105065;28;20040;-76
2022/12/28 07:09:46;;;;;;;16.70;11.70;;;;;;;;;;5086051;28;20043;-77
2022/12/28 07:12:12;;;;;;;15.45;11.10;;;;;;;;;;5101240;28;20035;-77
2022/12/28 07:14:38;;;;;;;16.40;11.10;;;;;;;;;;5078436;28;20028;-77
2022/12/28 07:17:04;;;;;;;15.38;11.18;;;;;;;;;;5103292;28;20036;-77
2022/12/28 07:19:30;;;;;;;14.35;10.85;;;;;;;;;;5104934;28;20038;-77
2022/12/28 07:21:56;;;;;;;16.10;10.45;;;;;;;;;;5103213;28;20032;-81
2022/12/28 07:24:22;;;;;;;14.68;9.77;;;;;;;;;;5098330;28;20227;-76
2022/12/28 07:26:49;;;;;;;13.95;9.40;;;;;;;;;;5101816;28;20042;-77
2022/12/28 07:29:15;;;;;;;26.30;11.18;;;;;;;;;;5098562;28;20035;-75
2022/12/28 07:31:41;;;;;;;12.50;9.20;;;;;;;;;;5079812;28;20028;-81
2022/12/28 07:34:07;;;;;;;17.95;9.13;;;;;;;;;;5105639;28;20490;-80
2022/12/28 07:36:33;;;;;;;16.42;9.38;;;;;;;;;;5100745;28;20027;-78
2022/12/28 07:38:59;;;;;;;13.18;9.20;;;;;;;;;;5071878;28;20147;-77
2022/12/28 07:41:26;;;;;;;12.25;8.65;;;;;;;;;;5104648;28;20035;-77
2022/12/28 07:43:53;;;;;;;18.67;9.55;;;;;;;;;;5101884;28;20111;-79
2022/12/28 07:46:21;;;;;;;12.57;8.93;;;;;;;;;;5106797;28;20482;-80
2022/12/28 07:48:47;;;;;;;13.23;9.20;;;;;;;;;;5103903;28;20067;-80
2022/12/28 07:51:22;;;;;;;13.75;9.15;;;;;;;;;;5106476;28;20436;-76
2022/12/28 07:53:49;;;;;;;11.45;9.23;;;;;;;;;;5110620;28;20039;-78
2022/12/28 07:56:15;;;;;;;12.25;8.73;;;;;;;;;;5106177;28;20100;-78
2022/12/28 07:58:41;;;;;;;13.70;10.27;;;;;;;;;;5100250;28;20048;-77
2022/12/28 08:01:07;;;;;;;14.77;10.00;;;;;;;;;;5096587;28;20023;-75
2022/12/28 08:03:34;;;;;;;17.38;10.80;;;;;;;;;;5109382;28;20046;-75
2022/12/28 08:06:07;;;;;;;12.93;10.35;;;;;;;;;;5107662;28;20107;-78
2022/12/28 08:08:34;;;;;;;12.52;10.52;;;;;;;;;;5080583;28;20035;-81
2022/12/28 08:11:04;;;;;;;12.63;9.52;;;;;;;;;;5109640;28;20160;-77
2022/12/28 08:13:34;;;;;;;13.55;9.40;;;;;;;;;;5111827;28;20035;-77
2022/12/28 08:16:00;;;;;;;14.88;9.90;;;;;;;;;;5107983;28;20120;-75
2022/12/28 08:18:26;;;;;;;12.27;10.05;;;;;;;;;;5103266;28;20039;-76
2022/12/28 08:20:52;;;;;;;9.85;8.90;;;;;;;;;;5103212;28;20047;-74
2022/12/28 08:23:18;;;;;;;12.70;10.38;;;;;;;;;;5112159;28;20492;-76
2022/12/28 08:25:44;;;;;;;12.27;9.25;;;;;;;;;;5108285;28;20043;-75
2022/12/28 08:28:10;;;;;;;10.65;9.55;;;;;;;;;;5111801;28;20036;-74
2022/12/28 08:30:36;;;;;;;11.70;9.82;;;;;;;;;;5105312;28;20055;-76
2022/12/28 08:33:02;;;;;;;10.93;9.23;;;;;;;;;;5114834;27;20030;-76
2022/12/28 08:35:29;;;;;;;9.27;7.80;;;;;;;;;;5107721;28;20032;-76
2022/12/28 08:37:55;;;;;;;9.05;7.68;;;;;;;;;;5094650;28;20035;-75
2022/12/28 08:40:26;;;;;;;7.05;6.35;;;;;;;;;;5096036;28;19935;-76
2022/12/28 08:42:54;;;;;;;6.57;5.60;;;;;;;;;;5105976;28;20421;-75
2022/12/28 08:45:20;;;;;;;5.85;5.22;;;;;;;;;;5107998;28;20039;-75
2022/12/28 08:47:46;;;;;;;6.68;5.47;;;;;;;;;;5103769;28;20475;-75
2022/12/28 08:50:12;;;;;;;5.72;5.20;;;;;;;;;;5073476;28;20036;-75
2022/12/28 08:52:38;;;;;;;9.57;5.97;;;;;;;;;;5095289;28;20061;-76
2022/12/28 08:55:04;;;;;;;6.43;5.50;;;;;;;;;;5103962;28;20473;-75
2022/12/28 08:57:30;;;;;;;7.72;5.25;;;;;;;;;;5110136;28;20051;-75
2022/12/28 08:59:56;;;;;;;7.45;6.10;;;;;;;;;;5093614;28;20081;-75
2022/12/28 09:02:22;;;;;;;7.43;6.50;;;;;;;;;;5102872;28;20036;-75
2022/12/28 09:04:48;;;;;;;8.60;7.70;;;;;;;;;;5103936;28;20060;-75
2022/12/28 09:07:14;;;;;;;12.07;8.93;;;;;;;;;;5102907;28;20119;-76
2022/12/28 09:09:40;;;;;;;12.35;9.18;;;;;;;;;;5064971;28;20495;-77
2022/12/28 09:12:06;;;;;;;9.68;8.73;;;;;;;;;;5107736;28;20059;-76
2022/12/28 09:14:32;;;;;;;11.75;9.52;;;;;;;;;;5110426;28;20084;-75
2022/12/28 09:17:00;;;;;;;12.23;10.18;;;;;;;;;;5111152;28;20032;-75
2022/12/28 09:19:27;;;;;;;11.40;8.95;;;;;;;;;;5111251;28;20035;-75
2022/12/28 09:21:54;;;;;;;10.70;9.07;;;;;;;;;;5109715;28;20110;-74
2022/12/28 09:24:20;;;;;;;16.27;10.30;;;;;;;;;;5112155;28;20377;-75
2022/12/28 09:26:46;;;;;;;10.50;8.50;;;;;;;;;;5088312;28;20031;-75
2022/12/28 09:29:13;;;;;;;10.52;7.75;;;;;;;;;;5101959;28;20081;-75
2022/12/28 09:31:40;;;;;;;8.63;7.72;;;;;;;;;;5110306;28;20065;-74
2022/12/28 09:34:07;;;;;;;9.73;8.45;;;;;;;;;;5109618;28;20020;-75
2022/12/28 09:36:37;;;;;;;10.70;8.00;;;;;;;;;;5107295;28;20488;-75
2022/12/28 09:39:07;;;;;;;13.40;9.32;;;;;;;;;;5104467;28;20067;-76
2022/12/28 09:41:49;;;;;;;14.50;8.70;;;;;;;;;;5099589;28;20024;-80
2022/12/28 09:44:15;;;;;;;11.68;8.63;;;;;;;;;;5105136;28;20035;-76
2022/12/28 09:46:44;;;;;;;9.57;8.52;;;;;;;;;;5107810;28;20164;-74
2022/12/28 09:49:14;;;;;;;9.35;7.68;;;;;;;;;;5106901;28;20024;-77
2022/12/28 09:51:42;;;;;;;8.18;7.38;;;;;;;;;;5105699;28;20041;-74
2022/12/28 09:54:08;;;;;;;8.93;8.02;;;;;;;;;;5101446;28;20031;-76
2022/12/28 09:56:36;;;;;;;10.15;8.68;;;;;;;;;;5103493;28;20122;-77
2022/12/28 09:59:05;;;;;;;10.57;9.48;;;;;;;;;;5108183;28;20039;-77
2022/12/28 10:01:35;;;;;;;11.93;10.73;;;;;;;;;;5096744;28;20028;-79
2022/12/28 10:04:01;;;;;;;19.17;13.20;;;;;;;;;;5095413;28;20024;-75
2022/12/28 10:06:28;;;;;;;15.77;12.80;;;;;;;;;;5090741;28;20020;-78
2022/12/28 10:08:56;;;;;;;16.90;13.70;;;;;;;;;;5105577;28;20491;-76
2022/12/28 10:11:27;;;;;;;19.23;14.55;;;;;;;;;;5107390;28;20080;-76
2022/12/28 10:13:58;;;;;;;18.33;13.10;;;;;;;;;;5080792;28;20067;-76
2022/12/28 10:16:25;;;;;;;16.63;13.00;;;;;;;;;;5096022;28;20384;-77
2022/12/28 10:18:51;;;;;;;17.73;12.85;;;;;;;;;;5105541;28;20122;-73
2022/12/28 10:21:19;;;;;;;15.45;12.60;;;;;;;;;;5100872;28;20468;-76
2022/12/28 10:23:46;;;;;;;15.82;13.35;;;;;;;;;;5107081;28;20544;-74
2022/12/28 10:26:16;;;;;;;15.43;12.40;;;;;;;;;;5096119;28;20101;-75
2022/12/28 10:28:48;;;;;;;16.55;13.88;;;;;;;;;;5112698;28;20092;-76
2022/12/28 10:31:16;;;;;;;14.13;11.45;;;;;;;;;;5116286;27;20030;-74
2022/12/28 10:33:50;;;;;;;14.90;12.07;;;;;;;;;;5108822;28;20044;-78
2022/12/28 10:36:17;;;;;;;15.98;12.45;;;;;;;;;;5094278;28;20078;-76
2022/12/28 10:38:48;;;;;;;12.57;11.27;;;;;;;;;;5087065;28;20425;-77
2022/12/28 10:41:15;;;;;;;15.45;11.57;;;;;;;;;;5108116;28;20027;-76
2022/12/28 10:43:43;;;;;;;15.15;11.65;;;;;;;;;;5110698;28;20158;-77
2022/12/28 10:46:20;;;;;;;13.57;10.40;;;;;;;;;;5103921;28;20084;-77
2022/12/28 10:48:47;;;;;;;11.07;9.35;;;;;;;;;;5107364;28;20103;-77
2022/12/28 10:51:14;;;;;;;13.32;9.55;;;;;;;;;;5112615;28;20030;-76
2022/12/28 10:53:42;;;;;;;11.77;10.57;;;;;;;;;;5106415;28;20047;-77
2022/12/28 10:56:11;;;;;;;13.60;10.30;;;;;;;;;;5113247;28;20061;-77
2022/12/28 10:58:38;;;;;;;11.18;9.55;;;;;;;;;;5107390;28;20061;-76
2022/12/28 11:01:06;;;;;;;14.55;10.55;;;;;;;;;;5106737;28;20108;-77
2022/12/28 11:03:34;;;;;;;12.02;8.98;;;;;;;;;;5113556;28;20024;-76
2022/12/28 11:06:08;;;;;;;12.43;9.05;;;;;;;;;;5113040;28;20031;-77
2022/12/28 11:08:34;;;;;;;12.23;9.82;;;;;;;;;;5090806;28;20119;-77
2022/12/28 11:11:01;;;;;;;11.57;10.07;;;;;;;;;;5114109;28;20019;-76
2022/12/28 11:13:27;;;;;;;14.23;10.43;;;;;;;;;;5113455;28;20107;-76
2022/12/28 11:15:53;;;;;;;10.07;8.32;;;;;;;;;;5113103;28;20032;-76
2022/12/28 11:18:20;;;;;;;12.68;10.82;;;;;;;;;;5106230;28;20035;-76
2022/12/28 11:20:50;;;;;;;10.50;8.43;;;;;;;;;;5113244;28;20047;-76
2022/12/28 11:23:23;;;;;;;9.30;8.20;;;;;;;;;;5113428;28;20487;-76
2022/12/28 11:25:49;;;;;;;12.93;8.68;;;;;;;;;;5110005;28;20027;-76
2022/12/28 11:28:17;;;;;;;9.23;8.15;;;;;;;;;;5094915;27;20039;-77
2022/12/28 11:30:44;;;;;;;8.02;7.22;;;;;;;;;;5127127;27;20099;-76
2022/12/28 11:33:35;;;;;;;9.07;7.20;;;;;;;;;;5108014;28;20106;-76
2022/12/28 11:36:01;;;;;;;9.02;7.03;;;;;;;;;;5129336;27;20039;-76
2022/12/28 11:38:43;;;;;;;6.80;6.10;;;;;;;;;;5109762;28;20079;-76
2022/12/28 11:41:26;;;;;;;6.57;5.88;;;;;;;;;;5112413;28;20050;-76
2022/12/28 11:43:52;;;;;;;;;;;;;;;;;;5105677;28;20523;-76
2022/12/28 11:46:21;;;;;;;7.38;6.18;;;;;;;;;;5111735;28;19907;-76
2022/12/28 11:48:59;;;;;;;8.65;6.32;;;;;;;;;;5108974;28;20035;-77
2022/12/28 11:51:26;;;;;;;7.22;6.32;;;;;;;;;;5111398;28;20149;-76
2022/12/28 11:53:54;;;;;;;7.32;6.60;;;;;;;;;;5112686;28;20020;-80
2022/12/28 11:56:24;;;;;;;8.05;7.15;;;;;;;;;;5109019;28;20448;-77
2022/12/28 11:58:59;;;;;;;7.75;6.97;;;;;;;;;;5107463;28;20093;-78
2022/12/28 12:01:28;;;;;;;7.07;6.40;;;;;;;;;;5099958;28;20027;-81
2022/12/28 12:03:57;;;;;;;9.90;7.45;;;;;;;;;;5105152;28;20042;-79
2022/12/28 12:06:46;;;;;;;9.35;7.60;;;;;;;;;;5096842;28;20020;-79
2022/12/28 12:09:25;;;;;;;9.07;7.25;;;;;;;;;;5092070;28;20032;-79
2022/12/28 12:11:52;;;;;;;9.52;7.15;;;;;;;;;;5091883;28;20024;-80
2022/12/28 12:14:20;;;;;;;7.68;6.38;;;;;;;;;;5101852;27;20038;-76
2022/12/28 12:16:48;;;;;;;9.82;7.40;;;;;;;;;;5100215;28;20031;-77
2022/12/28 12:19:22;;;;;;;9.13;7.30;;;;;;;;;;5101166;28;20085;-78
2022/12/28 12:21:54;;;;;;;13.13;7.05;;;;;;;;;;5104920;28;20036;-78
2022/12/28 12:24:25;;;;;;;9.20;8.02;;;;;;;;;;5098831;27;20471;-79
2022/12/28 12:27:10;;;;;;;7.32;6.32;;;;;;;;;;5103388;28;20032;-76
2022/12/28 12:29:36;;;;;;;15.45;6.68;;;;;;;;;;5093882;27;20360;-76
2022/12/28 12:32:07;;;;;;;10.52;7.15;;;;;;;;;;5101174;28;20027;-76
2022/12/28 12:34:43;;;;;;;7.90;5.50;;;;;;;;;;5093755;28;20020;-76
2022/12/28 12:37:09;;;;;;;10.40;6.18;;;;;;;;;;5103550;27;20396;-76
2022/12/28 12:40:01;;;;;;;7.03;4.55;;;;;;;;;;5098103;28;20020;-76
2022/12/28 12:42:37;;;;;;;9.35;4.93;;;;;;;;;;5098746;28;20651;-77
2022/12/28 12:45:03;;;;;;;6.90;4.40;;;;;;;;;;5096527;28;20498;-77
2022/12/28 12:47:47;;;;;;;7.57;3.92;;;;;;;;;;5094585;28;20024;-76
2022/12/28 12:50:19;;;;;;;3.92;3.30;;;;;;;;;;5101147;28;20059;-84
2022/12/28 12:52:48;;;;;;;4.80;3.47;;;;;;;;;;5109838;28;20107;-87
2022/12/28 12:55:14;;;;;;;3.53;3.22;;;;;;;;;;5107780;28;20035;-89
2022/12/28 12:57:47;;;;;;;4.97;3.03;;;;;;;;;;5092721;28;20430;-78
2022/12/28 13:00:17;;;;;;;5.65;3.45;;;;;;;;;;5097242;28;20036;-81
2022/12/28 13:02:49;;;;;;;4.30;3.35;;;;;;;;;;5108303;28;20456;-81
2022/12/28 13:05:26;;;;;;;4.57;3.05;;;;;;;;;;5111586;27;20031;-81
2022/12/28 13:07:55;;;;;;;5.25;3.45;;;;;;;;;;5102767;28;20109;-83
2022/12/28 13:10:27;;;;;;;3.55;3.05;;;;;;;;;;5107686;28;20119;-85
2022/12/28 13:12:57;;;;;;;4.70;3.05;;;;;;;;;;5103090;28;20039;-82
2022/12/28 13:15:23;;;;;;;3.20;2.38;;;;;;;;;;5102046;28;20016;-80
2022/12/28 13:17:59;;;;;;;5.30;2.58;;;;;;;;;;5107827;28;20038;-80
2022/12/28 13:20:25;;;;;;;3.47;2.33;;;;;;;;;;5097879;28;20062;-79
2022/12/28 13:22:51;;;;;;;3.83;2.60;;;;;;;;;;5100402;28;20102;-79
2022/12/28 13:25:26;;;;;;;4.85;2.58;;;;;;;;;;5113019;27;20204;-81
2022/12/28 13:27:52;;;;;;;4.90;2.30;;;;;;;;;;5083445;28;20030;-78
2022/12/28 13:30:19;;;;;;;2.42;2.22;;;;;;;;;;5104713;28;20039;-78
2022/12/28 13:32:52;;;;;;;4.10;2.28;;;;;;;;;;5084980;28;20059;-78
2022/12/28 13:35:20;;;;;;;3.75;1.85;;;;;;;;;;5097911;28;20035;-79
2022/12/28 13:38:01;;;;;;;6.55;2.22;;;;;;;;;;5104129;28;20418;-78
2022/12/28 13:40:27;;;;;;;6.75;2.30;;;;;;;;;;5108580;28;20050;-78
2022/12/28 13:43:02;;;;;;;4.68;1.92;;;;;;;;;;5108352;28;20041;-78
2022/12/28 13:45:32;;;;;;;3.25;1.90;;;;;;;;;;5104717;28;20024;-78
2022/12/28 13:47:58;;;;;;;4.50;3.28;;;;;;;;;;5107648;28;20360;-79
2022/12/28 13:50:29;;;;;;;6.60;2.85;;;;;;;;;;5110153;28;20467;-79
2022/12/28 13:52:58;;;;;;;3.35;1.48;;;;;;;;;;5086860;28;20034;-78
2022/12/28 13:55:26;;;;;;;4.68;2.10;;;;;;;;;;5083220;28;20035;-78
2022/12/28 13:57:54;;;;;;;6.40;2.25;;;;;;;;;;5096258;28;20055;-78
2022/12/28 14:00:21;;;;;;;7.15;2.00;;;;;;;;;;5105896;28;20040;-78
2022/12/28 14:02:49;;;;;;;8.38;2.65;;;;;;;;;;5110820;28;20387;-79
2022/12/28 14:05:19;;;;;;;8.60;2.10;;;;;;;;;;5106693;28;20031;-79
2022/12/28 14:07:45;;;;;;;8.90;2.85;;;;;;;;;;5111179;28;20100;-80
2022/12/28 14:10:11;;;;;;;7.50;2.13;;;;;;;;;;5110833;28;20036;-80
2022/12/28 14:12:37;;;;;;;9.85;3.08;;;;;;;;;;5107872;28;20101;-79
2022/12/28 14:15:04;;;;;;;5.00;2.10;;;;;;;;;;5109368;28;20547;-81
2022/12/28 14:17:30;;;;;;;8.05;2.13;;;;;;;;;;5090001;28;20036;-80
2022/12/28 14:19:57;;;;;;;8.50;2.30;;;;;;;;;;5103813;28;20386;-79
2022/12/28 14:22:34;;;;;;;9.85;2.60;;;;;;;;;;5104668;28;20110;-79
2022/12/28 14:25:05;;;;;;;7.38;2.45;;;;;;;;;;5110987;28;20046;-79
2022/12/28 14:27:32;;;;;;;7.88;3.13;;;;;;;;;;5110481;28;20051;-79
2022/12/28 14:29:58;;;;;;;8.27;3.28;;;;;;;;;;5110179;28;20114;-79
2022/12/28 14:32:25;;;;;;;10.88;3.50;;;;;;;;;;5103844;28;20115;-78
2022/12/28 14:34:56;;;;;;;9.65;2.92;;;;;;;;;;5109847;28;20115;-78
2022/12/28 14:37:24;;;;;;;7.45;2.90;;;;;;;;;;5098000;28;20024;-78
2022/12/28 14:39:50;;;;;;;12.45;4.45;;;;;;;;;;5108034;28;20039;-79
2022/12/28 14:42:19;;;;;;;6.68;2.72;;;;;;;;;;5110173;28;20040;-78
2022/12/28 14:44:45;;;;;;;10.95;3.65;;;;;;;;;;5109058;28;20028;-79
2022/12/28 14:47:30;;;;;;;8.73;3.50;;;;;;;;;;5109097;28;20031;-78
2022/12/28 14:49:59;;;;;;;11.35;3.22;;;;;;;;;;5107430;28;20147;-80
2022/12/28 14:52:32;;;;;;;9.85;3.13;;;;;;;;;;5110578;28;20032;-78
2022/12/28 14:54:58;;;;;;;7.10;3.30;;;;;;;;;;5110650;28;20031;-79
2022/12/28 14:57:24;;;;;;;13.05;3.88;;;;;;;;;;5109138;28;20027;-78
2022/12/28 14:59:55;;;;;;;5.00;2.80;;;;;;;;;;5091077;28;20046;-78